Scf Baltica — A8IA5 — position and weather

sailwx.info

Track history (hours):
 
Tides and Currents Weather Stations Pressure Air Temp Water Temp Dewpoint Dewpoint Depression Visibility Wind Speed Wind Dir Waves Ship Positions

Scf Baltica

Last reported at 2015-Aug-31 04:33 UTC. Time now 2015-Aug-31 04:47 UTC.
Position N 51°55' E 004°12'.

Length 250 m; draft 14 m.

Type: Ship. MMSI: 636012813.

Date/timePositionNaut miles runAvg speedWind from/ knotsBaromVisibWave heightAir tempDewpointWater temp
2015-Aug-31 04:33N 51°55' E 004°12'0 0.0
2015-Aug-31 03:30N 51°55' E 004°12'0 0.0
2015-Aug-31 02:27N 51°55' E 004°12'0 0.0
2015-Aug-31 01:33N 51°55' E 004°12'0 0.0
2015-Aug-31 00:30N 51°55' E 004°12'0 0.0
2015-Aug-30 23:30N 51°55' E 004°12'0 0.0
2015-Aug-30 22:33N 51°55' E 004°12'0 0.0
2015-Aug-30 20:33N 51°55' E 004°12'0 0.0
2015-Aug-30 19:30N 51°55' E 004°12'0 0.0
2015-Aug-30 18:33N 51°55' E 004°12'0 0.0
2015-Aug-30 17:30N 51°55' E 004°12'0 0.0
2015-Aug-30 16:30N 51°55' E 004°12'0 0.0
2015-Aug-30 15:33N 51°55' E 004°12'0 0.0
2015-Aug-30 14:27N 51°55' E 004°12'0 0.0
2015-Aug-30 13:33N 51°55' E 004°12'0 0.0
2015-Aug-30 12:33N 51°55' E 004°12'0 0.0
2015-Aug-30 11:33N 51°55' E 004°12'0 0.0
2015-Aug-30 10:30N 51°55' E 004°12'0 0.0
2015-Aug-30 09:33N 51°55' E 004°12'1 1.1
2015-Aug-30 08:34N 51°56' E 004°11'6 6.2
2015-Aug-30 07:33N 51°59' E 004°03'10 9.7
2015-Aug-30 06:34N 52°01' E 003°47'1110.3
2015-Aug-30 05:31N 52°06' E 003°33'1211.3
2015-Aug-30 04:29N 52°13' E 003°17'1111.3
2015-Aug-30 03:32N 52°20' E 003°03'19 8.8
2015-Aug-30 01:21N 52°39' E 003°03'911.3
2015-Aug-30 00:33N 52°47' E 003°09'1212.2
2015-Aug-29 23:33N 52°58' E 003°17'1312.8
2015-Aug-29 22:33N 53°11' E 003°23'1313.0
2015-Aug-29 21:33N 53°23' E 003°30'1312.8
2015-Aug-29 20:33N 53°35' E 003°36'1211.7
2015-Aug-29 19:33N 53°45' E 003°46'6911.4
2015-Aug-29 13:29N 54°40' E 004°57'1112.0
2015-Aug-29 12:33N 54°51' E 005°05'25410.1
2015-Aug-28 11:32N 57°50' E 010°28'9 9.4
2015-Aug-28 10:33N 57°48' E 010°45'10 8.9
2015-Aug-28 09:27N 57°42' E 010°59'1010.9
2015-Aug-28 08:33N 57°35' E 011°12'1211.6
2015-Aug-28 07:33N 57°26' E 011°26'1211.6
2015-Aug-28 06:33N 57°16' E 011°33'1311.4
2015-Aug-28 05:26N 57°03' E 011°41'1011.0
2015-Aug-28 04:33N 56°54' E 011°48'1110.7
2015-Aug-28 03:33N 56°44' E 011°52'9210.1
2015-Aug-27 18:29N 55°17' E 011°04'9 9.6
2015-Aug-27 17:31N 55°08' E 010°60'1110.6
2015-Aug-27 16:31N 54°57' E 010°56'1010.5
2015-Aug-27 15:33N 54°48' E 010°50'9 9.4
2015-Aug-27 14:33N 54°39' E 010°53'1110.7
2015-Aug-27 13:34N 54°36' E 011°11'1111.2
2015-Aug-27 12:33N 54°31' E 011°28'1111.2
2015-Aug-27 11:33N 54°27' E 011°46'1110.7
2015-Aug-27 10:33N 54°26' E 012°05'10 9.2
2015-Aug-27 09:30N 54°34' E 012°15'16 8.3
2015-Aug-27 07:33N 54°44' E 012°37'9 9.0
2015-Aug-27 06:33N 54°48' E 012°51'1111.3
2015-Aug-27 05:33N 54°52' E 013°09'1211.9
2015-Aug-27 04:33N 54°57' E 013°28'1211.8
2015-Aug-27 03:33N 55°01' E 013°48'1111.5
2015-Aug-27 02:33N 55°06' E 014°06'1111.4
2015-Aug-27 01:33N 55°15' E 014°18'1211.7
2015-Aug-27 00:33N 55°24' E 014°32'1211.5
2015-Aug-26 23:33N 55°30' E 014°48'1211.7
2015-Aug-26 22:33N 55°36' E 015°07'1211.7
2015-Aug-26 21:33N 55°39' E 015°26'29010.7
2015-Aug-25 18:29N 59°09' E 021°39'1212.0
2015-Aug-25 17:29N 59°16' E 021°57'1112.3
2015-Aug-25 16:33N 59°23' E 022°15'1211.7
2015-Aug-25 15:33N 59°30' E 022°34'1211.9
2015-Aug-25 14:33N 59°34' E 022°56'1212.0
2015-Aug-25 13:33N 59°37' E 023°19'1212.1
2015-Aug-25 12:33N 59°41' E 023°42'1212.1
2015-Aug-25 11:33N 59°44' E 024°05'1312.1
2015-Aug-25 10:31N 59°47' E 024°29'1212.0
2015-Aug-25 09:33N 59°50' E 024°52'1212.0
2015-Aug-25 08:33N 59°52' E 025°15'1211.8
2015-Aug-25 07:33N 59°54' E 025°38'1211.9
2015-Aug-25 06:33N 59°57' E 026°01'1211.7
2015-Aug-25 05:33N 60°00' E 026°24'1111.4
2015-Aug-25 04:33N 60°01' E 026°47'1111.1
2015-Aug-25 03:33N 60°01' E 027°09'1211.7
2015-Aug-25 02:33N 60°07' E 027°29'33 0.6
2015-Aug-22 23:24N 59°54' E 028°30'7 8.3
2015-Aug-22 22:33N 60°00' E 028°35'3311.0
2015-Aug-22 19:33N 60°06' E 027°30'1312.7
2015-Aug-22 18:29N 59°59' E 027°07'1112.4
2015-Aug-22 17:33N 59°59' E 026°44'1313.0
2015-Aug-22 16:33N 59°57' E 026°18'1312.9
2015-Aug-22 15:33N 59°53' E 025°53'4412.7
2015-Aug-22 12:06N 59°44' E 024°28'712.4
2015-Aug-22 11:32N 59°43' E 024°15'1212.6
2015-Aug-22 10:33N 59°39' E 023°52'1312.6
2015-Aug-22 09:33N 59°34' E 023°28'10411.2
2015-Aug-22 00:17N 58°28' E 020°52'811.0
2015-Aug-21 23:33N 58°22' E 020°43'2511.2
2015-Aug-21 21:17N 58°02' E 020°14'1311.1
2015-Aug-21 20:09N 57°52' E 019°59'711.2
2015-Aug-21 19:33N 57°46' E 019°52'1111.2
2015-Aug-21 18:33N 57°37' E 019°39'1611.1
2015-Aug-21 17:09N 57°25' E 019°22'611.0
2015-Aug-21 16:33N 57°20' E 019°14'1111.1
2015-Aug-21 15:33N 57°11' E 019°02'1111.0
2015-Aug-21 14:33N 57°02' E 018°51'1110.9
2015-Aug-21 13:33N 56°53' E 018°40'1110.9
2015-Aug-21 12:33N 56°46' E 018°24'1111.1
2015-Aug-21 11:33N 56°39' E 018°09'1111.2
2015-Aug-21 10:33N 56°32' E 017°53'1111.1
2015-Aug-21 09:33N 56°25' E 017°37'1111.0
2015-Aug-21 08:33N 56°18' E 017°21'1110.9
2015-Aug-21 07:31N 56°11' E 017°06'1010.8
2015-Aug-21 06:33N 56°05' E 016°51'1110.8
2015-Aug-21 05:33N 55°59' E 016°35'  
Track history (hours):
 
Tides and Currents Weather Stations Pressure Air Temp Water Temp Dewpoint Dewpoint Depression Visibility Wind Speed Wind Dir Waves Ship Positions

Scf Baltica

Last reported at 2015-Aug-31 04:33 UTC. Time now 2015-Aug-31 04:47 UTC.
Position N 51°55' E 004°12'.

Length 250 m; draft 14 m.

Type: Ship. MMSI: 636012813.

Date/timePositionNaut miles runAvg speedWind from/ knotsBaromVisibWave heightAir tempDewpointWater temp
2015-Aug-31 04:33N 51°55' E 004°12'0 0.0
2015-Aug-31 03:30N 51°55' E 004°12'0 0.0
2015-Aug-31 02:27N 51°55' E 004°12'0 0.0
2015-Aug-31 01:33N 51°55' E 004°12'0 0.0
2015-Aug-31 00:30N 51°55' E 004°12'0 0.0
2015-Aug-30 23:30N 51°55' E 004°12'0 0.0
2015-Aug-30 22:33N 51°55' E 004°12'0 0.0
2015-Aug-30 20:33N 51°55' E 004°12'0 0.0
2015-Aug-30 19:30N 51°55' E 004°12'0 0.0
2015-Aug-30 18:33N 51°55' E 004°12'0 0.0
2015-Aug-30 17:30N 51°55' E 004°12'0 0.0
2015-Aug-30 16:30N 51°55' E 004°12'0 0.0
2015-Aug-30 15:33N 51°55' E 004°12'0 0.0
2015-Aug-30 14:27N 51°55' E 004°12'0 0.0
2015-Aug-30 13:33N 51°55' E 004°12'0 0.0
2015-Aug-30 12:33N 51°55' E 004°12'0 0.0
2015-Aug-30 11:33N 51°55' E 004°12'0 0.0
2015-Aug-30 10:30N 51°55' E 004°12'0 0.0
2015-Aug-30 09:33N 51°55' E 004°12'1 1.1
2015-Aug-30 08:34N 51°56' E 004°11'6 6.2
2015-Aug-30 07:33N 51°59' E 004°03'10 9.7
2015-Aug-30 06:34N 52°01' E 003°47'1110.3
2015-Aug-30 05:31N 52°06' E 003°33'1211.3
2015-Aug-30 04:29N 52°13' E 003°17'1111.3
2015-Aug-30 03:32N 52°20' E 003°03'19 8.8
2015-Aug-30 01:21N 52°39' E 003°03'911.3
2015-Aug-30 00:33N 52°47' E 003°09'1212.2
2015-Aug-29 23:33N 52°58' E 003°17'1312.8
2015-Aug-29 22:33N 53°11' E 003°23'1313.0
2015-Aug-29 21:33N 53°23' E 003°30'1312.8
2015-Aug-29 20:33N 53°35' E 003°36'1211.7
2015-Aug-29 19:33N 53°45' E 003°46'6911.4
2015-Aug-29 13:29N 54°40' E 004°57'1112.0
2015-Aug-29 12:33N 54°51' E 005°05'25410.1
2015-Aug-28 11:32N 57°50' E 010°28'9 9.4
2015-Aug-28 10:33N 57°48' E 010°45'10 8.9
2015-Aug-28 09:27N 57°42' E 010°59'1010.9
2015-Aug-28 08:33N 57°35' E 011°12'1211.6
2015-Aug-28 07:33N 57°26' E 011°26'1211.6
2015-Aug-28 06:33N 57°16' E 011°33'1311.4
2015-Aug-28 05:26N 57°03' E 011°41'1011.0
2015-Aug-28 04:33N 56°54' E 011°48'1110.7
2015-Aug-28 03:33N 56°44' E 011°52'9210.1
2015-Aug-27 18:29N 55°17' E 011°04'9 9.6
2015-Aug-27 17:31N 55°08' E 010°60'1110.6
2015-Aug-27 16:31N 54°57' E 010°56'1010.5
2015-Aug-27 15:33N 54°48' E 010°50'9 9.4
2015-Aug-27 14:33N 54°39' E 010°53'1110.7
2015-Aug-27 13:34N 54°36' E 011°11'1111.2
2015-Aug-27 12:33N 54°31' E 011°28'1111.2
2015-Aug-27 11:33N 54°27' E 011°46'1110.7
2015-Aug-27 10:33N 54°26' E 012°05'10 9.2
2015-Aug-27 09:30N 54°34' E 012°15'16 8.3
2015-Aug-27 07:33N 54°44' E 012°37'9 9.0
2015-Aug-27 06:33N 54°48' E 012°51'1111.3
2015-Aug-27 05:33N 54°52' E 013°09'1211.9
2015-Aug-27 04:33N 54°57' E 013°28'1211.8
2015-Aug-27 03:33N 55°01' E 013°48'1111.5
2015-Aug-27 02:33N 55°06' E 014°06'1111.4
2015-Aug-27 01:33N 55°15' E 014°18'1211.7
2015-Aug-27 00:33N 55°24' E 014°32'1211.5
2015-Aug-26 23:33N 55°30' E 014°48'1211.7
2015-Aug-26 22:33N 55°36' E 015°07'1211.7
2015-Aug-26 21:33N 55°39' E 015°26'29010.7
2015-Aug-25 18:29N 59°09' E 021°39'1212.0
2015-Aug-25 17:29N 59°16' E 021°57'1112.3
2015-Aug-25 16:33N 59°23' E 022°15'1211.7
2015-Aug-25 15:33N 59°30' E 022°34'1211.9
2015-Aug-25 14:33N 59°34' E 022°56'1212.0
2015-Aug-25 13:33N 59°37' E 023°19'1212.1
2015-Aug-25 12:33N 59°41' E 023°42'1212.1
2015-Aug-25 11:33N 59°44' E 024°05'1312.1
2015-Aug-25 10:31N 59°47' E 024°29'1212.0
2015-Aug-25 09:33N 59°50' E 024°52'1212.0
2015-Aug-25 08:33N 59°52' E 025°15'1211.8
2015-Aug-25 07:33N 59°54' E 025°38'1211.9
2015-Aug-25 06:33N 59°57' E 026°01'1211.7
2015-Aug-25 05:33N 60°00' E 026°24'1111.4
2015-Aug-25 04:33N 60°01' E 026°47'1111.1
2015-Aug-25 03:33N 60°01' E 027°09'1211.7
2015-Aug-25 02:33N 60°07' E 027°29'33 0.6
2015-Aug-22 23:24N 59°54' E 028°30'7 8.3
2015-Aug-22 22:33N 60°00' E 028°35'3311.0
2015-Aug-22 19:33N 60°06' E 027°30'1312.7
2015-Aug-22 18:29N 59°59' E 027°07'1112.4
2015-Aug-22 17:33N 59°59' E 026°44'1313.0
2015-Aug-22 16:33N 59°57' E 026°18'1312.9
2015-Aug-22 15:33N 59°53' E 025°53'4412.7
2015-Aug-22 12:06N 59°44' E 024°28'712.4
2015-Aug-22 11:32N 59°43' E 024°15'1212.6
2015-Aug-22 10:33N 59°39' E 023°52'1312.6
2015-Aug-22 09:33N 59°34' E 023°28'10411.2
2015-Aug-22 00:17N 58°28' E 020°52'811.0
2015-Aug-21 23:33N 58°22' E 020°43'2511.2
2015-Aug-21 21:17N 58°02' E 020°14'1311.1
2015-Aug-21 20:09N 57°52' E 019°59'711.2
2015-Aug-21 19:33N 57°46' E 019°52'1111.2
2015-Aug-21 18:33N 57°37' E 019°39'1611.1
2015-Aug-21 17:09N 57°25' E 019°22'611.0
2015-Aug-21 16:33N 57°20' E 019°14'1111.1
2015-Aug-21 15:33N 57°11' E 019°02'1111.0
2015-Aug-21 14:33N 57°02' E 018°51'1110.9
2015-Aug-21 13:33N 56°53' E 018°40'1110.9
2015-Aug-21 12:33N 56°46' E 018°24'1111.1
2015-Aug-21 11:33N 56°39' E 018°09'1111.2
2015-Aug-21 10:33N 56°32' E 017°53'1111.1
2015-Aug-21 09:33N 56°25' E 017°37'1111.0
2015-Aug-21 08:33N 56°18' E 017°21'1110.9
2015-Aug-21 07:31N 56°11' E 017°06'1010.8
2015-Aug-21 06:33N 56°05' E 016°51'1110.8
2015-Aug-21 05:33N 55°59' E 016°35'  

Dump ship's entire track history